Latest Weather Observations for Gold Coast Seaway

IDQ60801

Issued at 7:32 am EST Saturday 19 September 2020 (issued every 10 minutes, with the page automatically refreshed every 10 minutes)

About weather observations | Map of weather stations | Latest weather observations for QLD | Other Formats
Station Details ID: 040764 Name: GOLD COAST SEAWAY Lat: -27.94 Lon: 153.43 Height: 2.98 m
Data from the previous 72 hours. | See also: Recent months at Gold Coast Seaway
Date/Time
EST
Temp
°C
App
Temp
°C
Dew
Point
°C
Rel
Hum
%
Delta-T
°C
Wind Press
QNH
hPa
Press
MSL
hPa
Rain since
9am
mm
Dir  Spd
km/h
Gust
km/h
Spd
kts
Gust
kts
19/07:30am 21.2 17.7 14.6 66 3.8 E 26 28 14 15 1026.4 1026.4 18.4
19/07:00am 20.9 18.7 15.0 69 3.5 ESE 20 26 11 14 1026.1 1026.1 18.4
19/06:30am 20.4 17.3 14.5 69 3.4 E 24 26 13 14 1026.0 1026.0 18.4
19/06:00am 19.9 16.5 13.8 68 3.5 E 24 28 13 15 1025.8 1025.8 18.4
19/05:30am 19.8 15.5 13.3 66 3.7 E 28 32 15 17 1025.5 1025.5 18.4
19/05:00am 19.9 16.6 14.9 73 2.9 E 26 32 14 17 1025.0 1025.0 18.4
19/04:30am 20.0 17.7 15.6 76 2.6 E 22 30 12 16 1024.5 1024.5 18.4
19/04:00am 19.6 17.0 15.9 79 2.2 ENE 24 30 13 16 1024.4 1024.4 18.4
19/03:30am 17.7 18.0 15.9 89 1.1 SW 9 13 5 7 1024.6 1024.6 18.4
19/03:00am 17.3 16.9 15.3 88 1.2 SW 11 15 6 8 1024.6 1024.6 18.2
19/02:30am 17.6 17.6 15.2 86 1.4 SSW 9 13 5 7 1024.9 1024.9 17.4
19/02:00am 17.7 16.6 15.3 86 1.4 SSE 15 22 8 12 1025.1 1025.1 17.4
19/01:30am 17.9 15.2 15.5 86 1.4 SE 24 30 13 16 1025.6 1025.6 17.4
19/01:00am 18.7 16.9 15.9 84 1.7 SSE 20 30 11 16 1026.1 1026.1 15.8
19/12:30am 19.6 17.8 16.1 80 2.1 E 20 28 11 15 1026.4 1026.4 15.8
19/12:00am 19.2 16.3 16.1 82 1.8 ESE 26 32 14 17 1026.7 1026.7 15.8
 
Date/Time
EST
Temp
°C
App
Temp
°C
Dew
Point
°C
Rel
Hum
%
Delta-T
°C
Wind Press
QNH
hPa
Press
MSL
hPa
Rain since
9am
mm
Dir  Spd
km/h
Gust
km/h
Spd
kts
Gust
kts
18/11:46pm 18.7 17.4 16.7 88 1.2 SE 19 35 10 19 1026.7 1026.7 15.8
18/11:30pm 17.8 19.2 16.3 91 0.9 SW 4 7 2 4 1026.8 1026.8 15.8
18/11:00pm 17.9 15.8 16.2 90 1.0 SE 22 30 12 16 1027.2 1027.2 13.2
18/10:30pm 18.8 14.8 16.8 88 1.2 ESE 33 43 18 23 1027.2 1027.2 7.8
18/10:26pm 18.8 15.6 16.2 85 1.6 ESE 28 43 15 23 1027.2 1027.2 7.0
18/10:00pm 19.3 17.9 16.9 86 1.4 ESE 20 24 11 13 1027.2 1027.2 6.6
18/09:30pm 18.4 16.0 16.4 88 1.2 ENE 24 33 13 18 1027.1 1027.1 5.8
18/09:08pm 18.4 13.7 15.8 85 1.5 ENE 35 50 19 27 1026.8 1026.8 4.0
18/09:00pm 19.3 15.9 15.8 80 2.1 E 28 48 15 26 1027.0 1027.0 3.0
18/08:30pm 20.8 17.7 16.6 77 2.5 SE 28 32 15 17 1027.0 1027.0 2.6
18/08:00pm 20.5 17.3 16.3 77 2.5 SE 28 32 15 17 1026.7 1026.7 2.6
18/07:30pm 20.6 17.0 16.2 76 2.6 SE 30 35 16 19 1026.6 1026.6 2.6
18/07:00pm 20.7 17.3 16.7 78 2.4 ESE 30 35 16 19 1026.6 1026.6 2.6
18/06:30pm 20.6 17.4 16.4 77 2.5 ESE 28 32 15 17 1026.5 1026.5 2.6
18/06:00pm 20.6 17.5 16.6 78 2.4 ESE 28 33 15 18 1026.0 1026.0 2.6
18/05:30pm 20.6 16.9 16.0 75 2.8 ESE 30 35 16 19 1025.7 1025.7 2.6
18/05:00pm 20.6 17.1 16.4 77 2.5 ESE 30 35 16 19 1025.4 1025.4 2.6
18/04:30pm 20.6 17.3 17.0 80 2.2 ESE 30 35 16 19 1025.2 1025.2 2.6
18/04:00pm 19.7 19.2 17.7 88 1.2 SE 17 22 9 12 1024.9 1024.9 2.6
18/03:37pm 19.0 14.2 15.5 80 2.1 ESE 35 43 19 23 1024.8 1024.8 0.2
18/03:30pm 20.2 15.5 16.8 81 2.1 E 37 46 20 25 1024.8 1024.8 0.0
18/03:24pm 21.3 17.4 16.5 74 2.9 ESE 32 46 17 25 1024.7 1024.7 0.0
18/03:00pm 23.2 20.7 17.2 69 3.7 SE 26 30 14 16 1024.5 1024.5 0.0
18/02:30pm 23.7 21.4 16.7 65 4.3 ESE 24 28 13 15 1025.0 1025.0 0.0
18/02:00pm 24.1 22.3 16.9 64 4.4 ESE 22 24 12 13 1025.3 1025.3 0.0
18/01:30pm 24.1 21.5 16.9 64 4.4 ESE 26 30 14 16 1025.2 1025.2 0.0
18/01:00pm 24.2 21.8 16.5 62 4.7 ESE 24 28 13 15 1025.8 1025.8 0.0
18/12:30pm 24.3 22.4 16.6 62 4.7 ESE 22 26 12 14 1026.2 1026.2 0.0
18/12:00pm 23.7 22.4 17.2 67 4.0 SE 20 24 11 13 1026.7 1026.7 0.0
18/11:30am 23.4 22.0 16.9 67 4.0 SE 20 22 11 12 1027.2 1027.2 0.0
18/11:00am 23.8 22.5 17.3 67 4.0 SE 20 24 11 13 1027.4 1027.4 0.0
18/10:30am 24.0 22.7 17.3 66 4.2 SE 20 22 11 12 1027.7 1027.7 0.0
18/10:00am 23.7 23.0 17.4 68 3.9 SE 17 20 9 11 1027.8 1027.8 0.0
18/09:30am 23.5 23.5 17.3 68 3.8 SSE 13 19 7 10 1027.9 1027.9 0.0
18/09:00am 22.8 22.8 17.3 71 3.4 SSE 13 19 7 10 1027.9 1027.9 0.0
18/08:30am 22.3 22.0 17.4 74 3.0 SSE 15 19 8 10 1027.6 1027.6 0.0
18/08:00am 21.1 20.9 16.7 76 2.7 SSE 13 19 7 10 1027.3 1027.3 0.0
18/07:30am 20.3 20.1 16.7 80 2.2 SSE 13 17 7 9 1026.9 1026.9 0.0
18/07:00am 19.0 19.4 16.2 84 1.7 SSE 9 13 5 7 1026.7 1026.7 0.0
18/06:30am 17.7 17.7 15.3 86 1.4 SW 9 9 5 5 1026.6 1026.6 0.0
18/06:00am 16.7 16.4 14.3 86 1.4 SW 9 11 5 6 1026.2 1026.2 0.0
18/05:30am 16.6 16.8 14.1 85 1.4 S 6 9 3 5 1025.8 1025.8 0.0
18/05:00am 16.7 16.6 14.0 84 1.5 SSW 7 9 4 5 1025.6 1025.6 0.0
18/04:30am 17.0 16.7 14.3 84 1.5 SSW 9 11 5 6 1025.4 1025.4 0.0
18/04:00am 16.9 16.2 14.2 84 1.5 SW 11 13 6 7 1025.1 1025.1 0.0
18/03:30am 17.1 16.7 14.2 83 1.7 SW 9 11 5 6 1025.2 1025.2 0.0
18/03:00am 17.4 17.1 14.5 83 1.7 SW 9 11 5 6 1025.0 1025.0 0.0
18/02:30am 17.1 16.4 14.4 84 1.5 SW 11 13 6 7 1025.0 1025.0 0.0
18/02:00am 17.3 16.6 14.4 83 1.7 SW 11 13 6 7 1025.1 1025.1 0.0
18/01:30am 17.4 17.1 14.3 82 1.8 SW 9 13 5 7 1025.1 1025.1 0.0
18/01:00am 17.5 17.3 14.6 83 1.7 WSW 9 13 5 7 1025.3 1025.3 0.0
18/12:30am 17.6 17.4 14.7 83 1.7 SW 9 13 5 7 1025.4 1025.4 0.0
18/12:00am 17.7 17.2 14.8 83 1.7 SW 11 15 6 8 1025.6 1025.6 0.0
 
Date/Time
EST
Temp
°C
App
Temp
°C
Dew
Point
°C
Rel
Hum
%
Delta-T
°C
Wind Press
QNH
hPa
Press
MSL
hPa
Rain since
9am
mm
Dir  Spd
km/h
Gust
km/h
Spd
kts
Gust
kts
17/11:30pm 17.7 17.5 14.8 83 1.7 SW 9 13 5 7 1025.7 1025.7 0.0
17/11:00pm 18.0 18.3 14.9 82 1.8 WSW 7 9 4 5 1025.6 1025.6 0.0
17/10:30pm 18.5 18.5 15.2 81 1.9 SW 9 11 5 6 1025.6 1025.6 0.0
17/10:00pm 18.8 18.4 15.1 79 2.2 SW 11 13 6 7 1025.7 1025.7 0.0
17/09:30pm 19.8 20.9 15.7 77 2.4 WSW 4 9 2 5 1025.9 1025.9 0.0
17/09:00pm 20.4 21.2 16.4 78 2.4 NNE 7 11 4 6 1025.8 1025.8 0.0
17/08:30pm 20.6 21.2 16.8 79 2.3 NE 9 11 5 6 1025.6 1025.6 0.0
17/08:00pm 20.6 20.7 16.6 78 2.4 ENE 11 13 6 7 1025.4 1025.4 0.0
17/07:30pm 20.7 20.8 16.5 77 2.5 NE 11 13 6 7 1025.2 1025.2 0.0
17/07:00pm 20.3 19.6 15.5 74 2.8 NE 13 15 7 8 1024.8 1024.8 0.0
17/06:30pm 20.8 20.0 16.2 75 2.8 NE 15 17 8 9 1024.4 1024.4 0.0
17/06:00pm 20.6 19.7 15.8 74 2.9 NE 15 17 8 9 1024.2 1024.2 0.0
17/05:30pm 20.8 19.6 16.0 74 2.9 NE 17 20 9 11 1023.9 1023.9 0.0
17/05:00pm 21.3 19.7 16.5 74 2.9 NE 20 24 11 13 1023.6 1023.6 0.0
17/04:30pm 21.5 19.8 16.2 72 3.2 ENE 20 24 11 13 1023.3 1023.3 0.0
17/04:00pm 22.0 20.6 16.5 71 3.3 ENE 19 22 10 12 1023.2 1023.2 0.0
17/03:30pm 22.2 20.3 15.8 67 3.8 ENE 20 24 11 13 1022.8 1022.8 0.0
17/03:00pm 22.5 20.7 16.1 67 3.9 ENE 20 22 11 12 1022.7 1022.7 0.0
17/02:30pm 23.0 21.4 16.5 67 4.0 ENE 20 24 11 13 1022.9 1022.9 0.0
17/02:00pm 22.9 20.6 15.7 64 4.3 ENE 22 28 12 15 1023.0 1023.0 0.0
17/01:30pm 22.9 20.8 16.2 66 4.1 ENE 22 26 12 14 1023.2 1023.2 0.0
17/01:00pm 22.7 20.3 16.3 67 3.9 ENE 24 28 13 15 1023.5 1023.5 0.0
17/12:30pm 23.1 20.7 16.4 66 4.1 ENE 24 28 13 15 1023.8 1023.8 0.0
17/12:00pm 23.2 21.0 16.0 64 4.3 ENE 22 26 12 14 1024.2 1024.2 0.0
17/11:30am 22.8 20.8 15.6 64 4.3 ENE 20 24 11 13 1024.6 1024.6 0.0
17/11:00am 22.5 20.5 15.6 65 4.1 ENE 20 22 11 12 1025.0 1025.0 0.0
17/10:30am 22.3 20.1 14.9 63 4.4 NE 20 24 11 13 1025.3 1025.3 0.0
17/10:00am 22.7 21.3 15.5 64 4.3 ENE 17 19 9 10 1025.4 1025.4 0.0
17/09:30am 22.8 22.4 15.1 62 4.6 ENE 11 13 6 7 1025.7 1025.7 0.0
17/09:00am 22.4 22.6 14.8 62 4.5 N 7 11 4 6 1025.8 1025.8 0.0
17/08:30am 21.4 21.3 13.3 60 4.6 NW 6 11 3 6 1025.8 1025.8 0.0
17/08:00am 20.4 20.4 14.3 68 3.5 W 7 9 4 5 1025.6 1025.6 0.0
17/07:30am 18.8 19.0 14.1 74 2.7 SW 6 9 3 5 1025.4 1025.4 0.0
17/07:00am 17.1 16.9 13.6 80 2.0 WSW 7 9 4 5 1025.3 1025.3 0.0
17/06:30am 16.1 15.6 13.8 86 1.3 SW 9 11 5 6 1024.8 1024.8 0.0
17/06:00am 15.3 14.5 13.0 86 1.3 WSW 9 11 5 6 1024.5 1024.5 0.0
17/05:30am 15.2 14.8 12.9 86 1.3 WSW 7 9 4 5 1024.3 1024.3 0.0
17/05:00am 15.3 15.0 12.6 84 1.5 WSW 6 7 3 4 1024.1 1024.1 0.0
17/04:30am 15.7 14.9 13.0 84 1.5 WSW 9 11 5 6 1023.9 1023.9 0.0
17/04:00am 15.7 15.0 13.2 85 1.4 WSW 9 11 5 6 1023.8 1023.8 0.0
17/03:30am 15.8 15.2 13.5 86 1.3 WSW 9 11 5 6 1023.6 1023.6 0.0
17/03:00am 16.0 15.8 13.5 85 1.4 WSW 7 9 4 5 1023.7 1023.7 0.0
17/02:30am 16.2 16.0 13.5 84 1.5 WSW 7 9 4 5 1024.1 1024.1 0.0
17/02:00am 16.2 16.0 13.5 84 1.5 WSW 7 9 4 5 1024.3 1024.3 0.0
17/01:30am 16.6 16.7 13.9 84 1.5 WSW 6 9 3 5 1024.7 1024.7 0.0
17/01:00am 16.6 16.1 13.9 84 1.5 WSW 9 11 5 6 1024.9 1024.9 0.0
17/12:30am 16.6 16.1 13.7 83 1.6 SW 9 13 5 7 1025.2 1025.2 0.0
17/12:00am 17.0 17.0 14.1 83 1.6 WSW 7 9 4 5 1025.4 1025.4 0.0
 
Date/Time
EST
Temp
°C
App
Temp
°C
Dew
Point
°C
Rel
Hum
%
Delta-T
°C
Wind Press
QNH
hPa
Press
MSL
hPa
Rain since
9am
mm
Dir  Spd
km/h
Gust
km/h
Spd
kts
Gust
kts
16/11:30pm 17.5 17.7 14.2 81 1.9 WSW 6 7 3 4 1025.7 1025.7 0.0
16/11:00pm 17.8 17.8 14.3 80 2.0 WSW 7 9 4 5 1025.8 1025.8 0.0
16/10:30pm 19.0 19.1 14.5 75 2.6 NW 7 13 4 7 1025.9 1025.9 0.0
16/10:00pm 19.3 18.8 14.8 75 2.6 NE 11 17 6 9 1025.7 1025.7 0.0
16/09:30pm 19.9 19.6 15.5 76 2.6 ENE 11 15 6 8 1025.6 1025.6 0.0
16/09:00pm 20.0 19.5 15.8 77 2.5 ENE 13 17 7 9 1025.5 1025.5 0.0
16/08:30pm 19.8 19.4 15.2 75 2.7 ENE 11 13 6 7 1025.4 1025.4 0.0
16/08:00pm 20.0 19.1 15.8 77 2.5 E 15 17 8 9 1025.2 1025.2 0.0
16/07:30pm 19.9 18.5 15.5 76 2.6 E 17 19 9 10 1025.1 1025.1 0.0
16/07:00pm 20.1 18.7 15.5 75 2.7 E 17 20 9 11 1024.8 1024.8 0.0
16/06:30pm 20.0 18.5 15.4 75 2.7 E 17 20 9 11 1024.5 1024.5 0.0
16/06:00pm 20.2 18.7 15.4 74 2.8 ENE 17 20 9 11 1024.3 1024.3 0.0
16/05:30pm 20.5 19.5 15.7 74 2.9 ENE 15 20 8 11 1024.3 1024.3 0.0
16/05:00pm 20.8 18.8 14.9 69 3.5 ENE 19 24 10 13 1024.0 1024.0 0.0
16/04:30pm 21.3 19.2 15.2 68 3.6 E 20 26 11 14 1023.7 1023.7 0.0
16/04:00pm 21.7 19.8 15.1 66 3.9 E 19 24 10 13 1023.6 1023.6 0.0
16/03:30pm 21.9 19.9 15.0 65 4.1 E 19 20 10 11 1023.4 1023.4 0.0
16/03:00pm 22.3 20.1 14.9 63 4.4 E 20 22 11 12 1023.5 1023.5 0.0
16/02:30pm 22.4 20.8 15.0 63 4.4 E 17 20 9 11 1024.0 1024.0 0.0
16/02:00pm 22.6 21.4 15.0 62 4.5 E 15 19 8 10 1024.2 1024.2 0.0
16/01:30pm 22.9 22.3 15.7 64 4.3 ESE 13 15 7 8 1024.5 1024.5 0.0
16/01:00pm 22.9 21.9 14.7 60 4.8 ESE 13 15 7 8 1024.9 1024.9 0.0
16/12:30pm 23.2 22.1 15.3 61 4.7 ESE 15 17 8 9 1025.2 1025.2 0.0
16/12:00pm 23.0 22.3 15.3 62 4.6 ESE 13 15 7 8 1025.7 1025.7 0.0
16/11:30am 22.8 21.8 15.6 64 4.3 SE 15 17 8 9 1026.0 1026.0 0.0
16/11:00am 22.7 21.7 15.5 64 4.3 SE 15 17 8 9 1026.5 1026.5 0.0
16/10:30am 22.7 22.2 15.0 61 4.6 SE 11 15 6 8 1027.0 1027.0 0.0
16/10:00am 22.5 22.1 15.1 63 4.4 SSE 11 15 6 8 1027.1 1027.1 0.0
16/09:30am 22.7 22.5 16.7 69 3.7 SSE 13 19 7 10 1027.3 1027.3 0.0
16/09:00am 20.8 19.5 14.9 69 3.5 S 15 22 8 12 1027.4 1027.4 0.0
16/08:30am 20.3 19.8 14.9 71 3.2 SSE 11 17 6 9 1027.5 1027.5 0.0
16/08:00am 20.6 20.3 15.4 72 3.1 SSE 11 15 6 8 1027.2 1027.2 0.0

Other formats

Comma delimited format used in spreadsheet applications
http://www.bom.gov.au/fwo/IDQ60801/IDQ60801.94580.axf

JavaScript Object Notation format (JSON) in row-major order
http://www.bom.gov.au/fwo/IDQ60801/IDQ60801.94580.json

Data quality

Most of these data are generated automatically and are frequently updated. Quality checks on data are not normally performed. It is possible for incorrect values to appear. Refer to information at About Latest Weather Observations and please check the disclaimer before using these data.